Portada
METAR-TAF:

METAR-TAF

Aeroports :

Aeroport d'Alacant-Elx

Alacant, Espanya

latitud: 38-17N, longitud: 000-33W, altitud: 43 m

Observació

L'informe es va fer fa 36 minuts, a les 19:30 UTC
Vent calma
Temperatura 25°C
Humitat 89%
Pressió 1018 hPa
Visibilitat 10 km o més
sense núvols per sota de 1500 mi sense presència de cumulonimbus.

METAR: LEAL 211930Z 00000KT CAVOK 25/23 Q1018 NOSIG

Hora: 22:06 (20:06 UTC)

Pronòstic

L'informe es va fer fa 3 hores i 6 minuts, a les 17:00 UTC
Pronòstic vàlid del 21 a les 18 UTC al 22 a les 18 UTC
Vent 10 kt del Sud
Visibilitat 10 km o més
Escasses núvols a una alçada de 3000 ft
Evolucionant progressivament
l' 21 a les 18 UTC al 21 a les 20 UTC
Vent 3 kt amb direcció variable
Evolucionant progressivament
l' 22 a les 10 UTC al 22 a les 12 UTC
Vent 10 kt del Sud-Est

TAF: LEAL 211700Z 2118/2218 17010KT 9999 FEW030 TX30/2212Z TN22/2206Z BECMG 2118/2120 VRB03KT BECMG 2210/2212 14010KT

Observacions i pronòstics meteorològics de més de 4000 aeroports (METAR i TAF).

Les estacions disponibles són els punts grocs i vermells al mapa.

Posi el ratolí al punt desitjat per veure el nom de l'estació.

Feu clic per veure les observacions i els pronòstics meteorològics.

Per canviar el mapa: feu clic els botons verds amb una creu de color negre per apropar; al botó verd amb un guió per allunyar la imatge; o en les fletxes verdes per a mapes adjacents.


METAR-TAF: